Time;durP1;ratioP1;P1;durP2;ratioP2;P2;SDS_P1;SDS_P2;PMS_P1;PMS_P2;Temp;Humidity;BMP_temperature;BMP_pressure;BME280_temperature;BME280_humidity;BME280_pressure;Samples;Min_cycle;Max_cycle;Signal;HPM_P1;HPM_P2
2022/09/21 00:00:23;;;;;;;;;;;;;;;15.27;100.00;99880.66;5073981;28;19959;-47
2022/09/21 00:02:48;;;;;;;;;;;;;;;15.46;100.00;99886.00;5054139;28;19970;-48
2022/09/21 00:05:13;;;;;;;;;;;;;;;15.37;100.00;99882.03;5075556;28;19916;-47
2022/09/21 00:07:39;;;;;;;;;;;;;;;15.34;100.00;99882.13;5071345;28;19970;-47
2022/09/21 00:10:04;;;;;;;;;;;;;;;15.40;100.00;99878.47;5071851;28;19927;-48
2022/09/21 00:12:30;;;;;;;;;;;;;;;15.37;100.00;99878.56;5072430;28;19924;-47
2022/09/21 00:14:56;;;;;;;;;;;;;;;15.28;100.00;99882.38;5052386;28;20039;-47
2022/09/21 00:17:21;;;;;;;;;;;;;;;15.19;100.00;99886.13;5074739;28;19916;-47
2022/09/21 00:19:46;;;;;;;;;;;;;;;15.34;100.00;99876.91;5073377;28;20710;-47
2022/09/21 00:22:11;;;;;;;;;;;;;;;15.03;100.00;99888.44;5072250;28;19961;-47
2022/09/21 00:24:37;;;;;;;;;;;;;;;15.01;100.00;99889.41;5075434;28;19923;-47
2022/09/21 00:27:02;;;;;;;;;;;;;;;14.86;100.00;99885.59;5073531;28;19916;-46
2022/09/21 00:29:27;;;;;;;;;;;;;;;14.87;100.00;99887.31;5070678;28;20782;-47
2022/09/21 00:31:52;;;;;;;;;;;;;;;14.96;100.00;99886.09;5071663;28;20395;-47
2022/09/21 00:34:17;;;;;;;;;;;;;;;14.67;100.00;99889.75;5073791;28;20291;-46
2022/09/21 00:36:43;;;;;;;;;;;;;;;14.76;100.00;99886.84;5070910;28;19977;-49
2022/09/21 00:39:08;;;;;;;;;;;;;;;14.47;100.00;99898.16;5071326;28;20008;-46
2022/09/21 00:41:33;;;;;;;;;;;;;;;14.59;100.00;99896.03;5070691;28;20001;-48
2022/09/21 00:44:28;;;;;;;;;;;;;;;14.51;100.00;99898.00;5073305;28;20965;-47
2022/09/21 00:46:55;;;;;;;;;;;;;;;14.36;100.00;99894.16;5055206;28;19951;-51
2022/09/21 00:49:20;;;;;;;;;;;;;;;14.54;100.00;99897.94;5055053;28;19924;-49
2022/09/21 00:51:45;;;;;;;;;;;;;;;14.54;100.00;99905.69;5037835;28;20388;-47
2022/09/21 00:54:15;;;;;;;;;;;;;;;14.51;100.00;99900.59;5072677;28;20710;-50
2022/09/21 00:56:40;;;;;;;;;;;;;;;14.72;100.00;99895.63;5069785;28;20554;-46
2022/09/21 00:59:05;;;;;;;;;;;;;;;14.70;100.00;99897.41;5073077;28;19924;-47
2022/09/21 01:01:31;;;;;;;;;;;;;;;14.52;100.00;99907.47;5071021;28;19931;-49
2022/09/21 01:03:56;;;;;;;;;;;;;;;14.58;100.00;99902.13;5072008;28;19924;-47
2022/09/21 01:06:22;;;;;;;;;;;;;;;14.52;100.00;99904.03;5055372;28;19920;-47
2022/09/21 01:08:51;;;;;;;;;;;;;;;14.61;100.00;99903.75;5062833;28;19927;-48
2022/09/21 01:11:24;;;;;;;;;;;;;;;14.55;100.00;99902.22;5065091;28;19924;-46
2022/09/21 01:13:52;;;;;;;;;;;;;;;14.47;100.00;99901.59;5054285;28;20474;-47
2022/09/21 01:16:19;;;;;;;;;;;;;;;14.48;100.00;99900.69;5055114;28;20002;-48
2022/09/21 01:18:46;;;;;;;;;;;;;;;14.51;100.00;99900.59;5051806;28;20449;-50
2022/09/21 01:21:19;;;;;;;;;;;;;;;14.64;100.00;99895.84;5053594;28;19920;-49
2022/09/21 01:23:56;;;;;;;;;;;;;;;14.50;100.00;99898.06;5036842;28;19920;-48
2022/09/21 01:26:48;;;;;;;;;;;;;;;14.13;100.00;99907.88;5073122;28;19920;-48
2022/09/21 01:29:19;;;;;;;;;;;;;;;14.03;100.00;99909.09;5039979;28;20277;-47
2022/09/21 01:31:53;;;;;;;;;;;;;;;14.22;100.00;99907.59;5051068;28;19923;-48
2022/09/21 01:34:30;;;;;;;;;;;;;;;14.07;100.00;99905.50;5071030;28;19920;-48
2022/09/21 01:36:56;;;;;;;;;;;;;;;14.02;100.00;99909.97;5072129;28;19919;-48
2022/09/21 01:39:21;;;;;;;;;;;;;;;13.82;100.00;99915.75;5053047;28;19924;-48
2022/09/21 01:41:47;;;;;;;;;;;;;;;13.88;100.00;99920.75;5049684;28;19924;-47
2022/09/21 01:44:17;;;;;;;;;;;;;;;14.25;100.00;99916.16;5053617;28;19920;-48
2022/09/21 01:46:42;;;;;;;;;;;;;;;14.19;100.00;99924.97;5054386;28;20006;-47
2022/09/21 01:49:09;;;;;;;;;;;;;;;13.73;100.00;99926.38;5050659;28;19920;-47
2022/09/21 01:51:34;;;;;;;;;;;;;;;13.90;100.00;99923.31;5053126;28;20203;-47
2022/09/21 01:54:13;;;;;;;;;;;;;;;13.89;100.00;99926.78;5071281;28;19920;-47
2022/09/21 01:56:40;;;;;;;;;;;;;;;13.85;100.00;99920.00;5049343;28;19920;-48
2022/09/21 01:59:10;;;;;;;;;;;;;;;14.12;100.00;99924.34;5055066;28;19921;-47
2022/09/21 02:01:37;;;;;;;;;;;;;;;14.17;100.00;99927.63;5053459;28;19920;-47
2022/09/21 02:04:03;;;;;;;;;;;;;;;14.07;100.00;99922.75;5052605;28;20007;-47
2022/09/21 02:06:29;;;;;;;;;;;;;;;13.59;100.00;99924.22;5055062;28;19920;-46
2022/09/21 02:08:54;;;;;;;;;;;;;;;13.88;100.00;99930.28;5053780;28;19930;-49
2022/09/21 02:11:19;;;;;;;;;;;;;;;14.08;100.00;99930.50;5052430;28;20500;-49
2022/09/21 02:13:45;;;;;;;;;;;;;;;13.69;100.00;99930.81;5071554;28;19920;-49
2022/09/21 02:16:31;;;;;;;;;;;;;;;13.68;100.00;99923.94;5070933;28;19987;-48
2022/09/21 02:18:56;;;;;;;;;;;;;;;13.70;100.00;99929.91;5052814;28;19931;-48
2022/09/21 02:21:40;;;;;;;;;;;;;;;13.71;100.00;99923.03;5071491;28;19923;-47
2022/09/21 02:24:14;;;;;;;;;;;;;;;13.93;100.00;99923.19;5071554;28;20312;-48
2022/09/21 02:26:44;;;;;;;;;;;;;;;14.03;100.00;99924.63;5068476;28;20034;-47
2022/09/21 02:29:14;;;;;;;;;;;;;;;13.98;100.00;99921.31;5054192;28;19920;-47
2022/09/21 02:31:41;;;;;;;;;;;;;;;13.72;100.00;99920.38;5069106;28;19931;-47
2022/09/21 02:34:13;;;;;;;;;;;;;;;13.88;100.00;99920.75;5071653;28;19933;-49
2022/09/21 02:36:43;;;;;;;;;;;;;;;13.93;100.00;99915.44;5051902;28;20364;-49
2022/09/21 02:39:09;;;;;;;;;;;;;;;13.95;100.00;99921.41;5052032;28;20389;-48
2022/09/21 02:41:53;;;;;;;;;;;;;;;13.69;100.00;99919.63;5052604;28;19923;-48
2022/09/21 02:44:31;;;;;;;;;;;;;;;13.81;100.00;99920.09;5068986;28;20043;-47
2022/09/21 02:47:02;;;;;;;;;;;;;;;13.71;100.00;99910.91;5051787;28;19931;-47
2022/09/21 02:49:30;;;;;;;;;;;;;;;13.56;100.00;99921.72;5051605;28;20648;-48
2022/09/21 02:51:56;;;;;;;;;;;;;;;13.25;100.00;99921.72;5051534;28;19959;-49
2022/09/21 02:54:23;;;;;;;;;;;;;;;13.42;100.00;99926.47;5051648;28;19919;-47
2022/09/21 02:56:50;;;;;;;;;;;;;;;13.37;100.00;99916.25;5051093;28;19923;-47
2022/09/21 02:59:16;;;;;;;;;;;;;;;13.58;100.00;99917.34;5053798;28;19916;-50
2022/09/21 03:01:41;;;;;;;;;;;;;;;13.52;100.00;99907.19;5072978;28;20387;-47
2022/09/21 03:04:06;;;;;;;;;;;;;;;13.43;100.00;99912.63;5040101;28;19928;-49
2022/09/21 03:06:32;;;;;;;;;;;;;;;13.68;100.00;99910.16;5057802;28;20704;-48
2022/09/21 03:08:57;;;;;;;;;;;;;;;13.75;100.00;99909.94;5074405;28;20036;-47
2022/09/21 03:11:22;;;;;;;;;;;;;;;13.71;100.00;99912.66;5073823;28;20164;-47
2022/09/21 03:13:48;;;;;;;;;;;;;;;13.71;100.00;99910.91;5074725;28;19966;-48
2022/09/21 03:16:13;;;;;;;;;;;;;;;13.65;100.00;99905.91;5074198;28;20104;-47
2022/09/21 03:18:39;;;;;;;;;;;;;;;13.61;100.00;99914.66;5076358;28;20991;-49
2022/09/21 03:21:04;;;;;;;;;;;;;;;13.55;100.00;99907.94;5072473;28;19920;-50
2022/09/21 03:23:29;;;;;;;;;;;;;;;13.67;100.00;99917.06;5056803;28;19959;-47
2022/09/21 03:25:55;;;;;;;;;;;;;;;13.47;100.00;99924.59;5074330;28;19920;-49
2022/09/21 03:28:20;;;;;;;;;;;;;;;13.24;100.00;99918.28;5074668;28;19954;-47
2022/09/21 03:30:47;;;;;;;;;;;;;;;13.50;100.00;99920.19;5055045;28;19920;-49
2022/09/21 03:33:12;;;;;;;;;;;;;;;13.50;100.00;99921.91;5045206;28;20048;-47
2022/09/21 03:35:38;;;;;;;;;;;;;;;13.57;100.00;99918.22;5070539;28;20606;-47
2022/09/21 03:38:03;;;;;;;;;;;;;;;13.31;100.00;99917.25;5075064;28;19919;-50
2022/09/21 03:40:28;;;;;;;;;;;;;;;13.25;100.00;99925.19;5073318;28;20538;-48
2022/09/21 03:42:53;;;;;;;;;;;;;;;13.11;100.00;99929.88;5072071;28;20900;-46
2022/09/21 03:45:20;;;;;;;;;;;;;;;13.04;100.00;99930.94;5074088;28;20313;-47
2022/09/21 03:47:46;;;;;;;;;;;;;;;13.02;100.00;99932.69;5073236;28;19980;-47
2022/09/21 03:50:11;;;;;;;;;;;;;;;13.05;100.00;99930.06;5072976;28;21279;-47
2022/09/21 03:52:37;;;;;;;;;;;;;;;12.97;100.00;99935.41;5071522;28;19928;-47
2022/09/21 03:55:05;;;;;;;;;;;;;;;13.00;100.00;99932.75;5057585;28;19927;-49
2022/09/21 03:57:30;;;;;;;;;;;;;;;13.10;100.00;99935.94;5073502;28;19920;-47
2022/09/21 03:59:55;;;;;;;;;;;;;;;13.04;100.00;99931.75;5074436;28;20429;-47
2022/09/21 04:02:21;;;;;;;;;;;;;;;13.05;100.00;99932.63;5073367;28;20397;-47
2022/09/21 04:04:46;;;;;;;;;;;;;;;13.11;100.00;99928.16;5073526;28;20491;-47
2022/09/21 04:07:11;;;;;;;;;;;;;;;13.12;100.00;99921.22;5073752;28;19943;-47
2022/09/21 04:09:37;;;;;;;;;;;;;;;13.05;100.00;99930.91;5071319;28;19930;-47
2022/09/21 04:12:02;;;;;;;;;;;;;;;13.20;100.00;99934.78;5071249;28;20027;-50
2022/09/21 04:14:28;;;;;;;;;;;;;;;13.26;100.00;99926.84;5074559;28;19920;-48
2022/09/21 04:16:53;;;;;;;;;;;;;;;13.17;100.00;99927.97;5072790;28;20399;-48
2022/09/21 04:19:21;;;;;;;;;;;;;;;12.91;100.00;99928.69;5075149;28;19995;-47
2022/09/21 04:21:46;;;;;;;;;;;;;;;12.68;100.00;99933.59;5073951;28;19920;-49
2022/09/21 04:24:11;;;;;;;;;;;;;;;12.58;100.00;99932.13;5074396;28;19927;-48
2022/09/21 04:26:36;;;;;;;;;;;;;;;12.76;100.00;99926.50;5072859;28;19926;-47
2022/09/21 04:29:02;;;;;;;;;;;;;;;12.74;100.00;99930.84;5069643;28;19920;-47
2022/09/21 04:31:28;;;;;;;;;;;;;;;12.91;100.00;99933.84;5074925;28;20353;-48
2022/09/21 04:33:53;;;;;;;;;;;;;;;12.89;100.00;99927.88;5072963;28;19919;-48
2022/09/21 04:36:22;;;;;;;;;;;;;;;12.89;100.00;99932.19;5068969;28;19991;-47
2022/09/21 04:38:48;;;;;;;;;;;;;;;12.80;100.00;99932.44;5055886;28;19920;-48
2022/09/21 04:41:13;;;;;;;;;;;;;;;12.52;100.00;99939.16;5071619;28;19927;-48
2022/09/21 04:43:45;;;;;;;;;;;;;;;12.74;100.00;99942.03;5055636;28;20015;-48
2022/09/21 04:46:11;;;;;;;;;;;;;;;12.73;100.00;99942.09;5073197;28;19924;-50
2022/09/21 04:48:37;;;;;;;;;;;;;;;12.74;100.00;99941.19;5071459;28;20961;-48
2022/09/21 04:51:02;;;;;;;;;;;;;;;12.62;100.00;99933.75;5072549;28;19924;-47
2022/09/21 04:53:28;;;;;;;;;;;;;;;12.60;100.00;99941.53;5073102;28;19950;-50
2022/09/21 04:55:54;;;;;;;;;;;;;;;12.59;100.00;99939.00;5068137;28;19980;-47
2022/09/21 04:58:19;;;;;;;;;;;;;;;12.27;100.00;99943.22;5069075;28;19920;-47
2022/09/21 05:00:48;;;;;;;;;;;;;;;12.44;100.00;99948.81;5073436;28;20001;-49
2022/09/21 05:03:13;;;;;;;;;;;;;;;12.61;100.00;99947.56;5072590;28;19951;-51
2022/09/21 05:05:38;;;;;;;;;;;;;;;12.62;100.00;99946.69;5073750;28;19987;-48
2022/09/21 05:08:03;;;;;;;;;;;;;;;12.52;100.00;99954.66;5073859;28;20027;-47
2022/09/21 05:10:29;;;;;;;;;;;;;;;12.49;100.00;99956.47;5072288;28;19999;-47
2022/09/21 05:12:54;;;;;;;;;;;;;;;12.03;100.00;99966.13;5072476;28;20019;-48
2022/09/21 05:15:21;;;;;;;;;;;;;;;12.34;100.00;99970.63;5072976;28;19920;-48
2022/09/21 05:17:46;;;;;;;;;;;;;;;12.25;100.00;99970.84;5073029;28;19919;-48
2022/09/21 05:20:11;;;;;;;;;;;;;;;12.48;100.00;99971.13;5070145;28;20002;-49
2022/09/21 05:22:36;;;;;;;;;;;;;;;12.46;100.00;99980.66;5073581;28;19989;-47
2022/09/21 05:25:02;;;;;;;;;;;;;;;12.41;100.00;99981.66;5070994;28;20293;-47
2022/09/21 05:27:27;;;;;;;;;;;;;;;12.40;100.00;99979.94;5071707;28;20272;-47
2022/09/21 05:29:52;;;;;;;;;;;;;;;12.24;100.00;99984.59;5074135;28;19998;-47
2022/09/21 05:32:37;;;;;;;;;;;;;;;12.52;100.00;99980.50;5072455;28;20377;-47
2022/09/21 05:35:14;;;;;;;;;;;;;;;12.49;100.00;99990.06;5073708;28;19959;-47
2022/09/21 05:37:58;;;;;;;;;;;;;;;12.59;100.00;99986.38;5069823;28;19966;-48
2022/09/21 05:40:23;;;;;;;;;;;;;;;12.58;100.00;99988.97;5071593;28;19986;-49
2022/09/21 05:42:48;;;;;;;;;;;;;;;12.42;100.00;99984.19;5071671;28;20399;-48
2022/09/21 05:45:14;;;;;;;;;;;;;;;12.31;100.00;99991.31;5054338;28;20372;-47
2022/09/21 05:47:49;;;;;;;;;;;;;;;12.39;100.00;99988.59;5073827;28;19923;-48
2022/09/21 05:50:29;;;;;;;;;;;;;;;12.41;100.00;99992.81;5071849;28;19916;-49
2022/09/21 05:52:54;;;;;;;;;;;;;;;12.27;100.00;99997.44;5072231;28;19930;-49
2022/09/21 05:55:29;;;;;;;;;;;;;;;12.45;100.00;99991.00;5072149;28;19920;-49
2022/09/21 05:57:57;;;;;;;;;;;;;;;12.62;100.00;99990.63;5073490;28;20481;-42
2022/09/21 06:00:22;;;;;;;;;;;;;;;12.24;100.00;99994.94;5070271;28;19916;-42
2022/09/21 06:02:50;;;;;;;;;;;;;;;12.32;100.00;99995.63;5072520;28;19927;-42
2022/09/21 06:05:15;;;;;;;;;;;;;;;12.26;100.00;99999.19;5053716;28;19956;-43
2022/09/21 06:07:41;;;;;;;;;;;;;;;12.55;100.00;99995.91;5055091;28;20056;-43
2022/09/21 06:10:07;;;;;;;;;;;;;;;11.87;100.00;100004.34;5070993;28;19928;-42
2022/09/21 06:12:32;;;;;;;;;;;;;;;12.64;100.00;100000.03;5070287;28;19936;-42
2022/09/21 06:14:57;;;;;;;;;;;;;;;13.39;100.00;99992.09;5072488;28;19916;-43
2022/09/21 06:17:26;;;;;;;;;;;;;;;13.49;100.00;99995.25;5072567;28;19923;-43
2022/09/21 06:19:51;;;;;;;;;;;;;;;13.37;100.00;99992.13;5072208;28;20666;-42
2022/09/21 06:22:16;;;;;;;;;;;;;;;13.37;100.00;99989.53;5072130;28;19957;-43
2022/09/21 06:24:41;;;;;;;;;;;;;;;13.76;100.00;99993.63;5070072;28;20019;-43
2022/09/21 06:27:07;;;;;;;;;;;;;;;13.85;100.00;99990.75;5072027;28;19920;-43
2022/09/21 06:29:32;;;;;;;;;;;;;;;13.97;100.00;99985.22;5071745;28;19951;-43
2022/09/21 06:31:58;;;;;;;;;;;;;;;14.24;100.00;99985.28;5071856;28;20372;-43
2022/09/21 06:34:24;;;;;;;;;;;;;;;14.71;100.00;99974.28;5072162;28;19973;-43
2022/09/21 06:36:49;;;;;;;;;;;;;;;14.81;100.00;99981.72;5070266;28;19920;-43
2022/09/21 06:39:14;;;;;;;;;;;;;;;14.54;100.00;99978.28;5073859;28;20015;-43
2022/09/21 06:41:39;;;;;;;;;;;;;;;15.00;100.00;99979.31;5075371;28;20022;-43
2022/09/21 06:44:05;;;;;;;;;;;;;;;15.21;100.00;99979.47;5058212;28;19946;-42
2022/09/21 06:46:30;;;;;;;;;;;;;;;15.38;100.00;99976.28;5074649;28;19916;-43
2022/09/21 06:48:55;;;;;;;;;;;;;;;15.48;100.00;99970.69;5076456;28;19978;-43
2022/09/21 06:51:22;;;;;;;;;;;;;;;15.68;100.00;99976.91;5074477;28;19938;-43
2022/09/21 06:53:48;;;;;;;;;;;;;;;15.89;100.00;99967.50;5075018;28;20304;-43
2022/09/21 06:56:13;;;;;;;;;;;;;;;15.72;100.00;99962.94;5074958;28;19926;-43
2022/09/21 06:58:38;;;;;;;;;;;;;;;15.66;100.00;99974.38;5075430;28;19916;-43
2022/09/21 07:01:07;;;;;;;;;;;;;;;16.12;100.00;99968.34;5075090;28;20020;-43
2022/09/21 07:03:33;;;;;;;;;;;;;;;16.03;100.00;99978.22;5076153;28;20004;-43
2022/09/21 07:05:58;;;;;;;;;;;;;;;16.29;100.00;99974.56;5074381;28;20018;-43
2022/09/21 07:08:23;;;;;;;;;;;;;;;16.27;100.00;99962.56;5057359;28;19927;-43
2022/09/21 07:10:48;;;;;;;;;;;;;;;16.36;100.00;99976.94;5074370;28;19969;-43
2022/09/21 07:13:16;;;;;;;;;;;;;;;16.19;100.00;99970.63;5074016;28;20011;-43
2022/09/21 07:15:41;;;;;;;;;;;;;;;16.09;100.00;99974.50;5055418;28;19916;-43
2022/09/21 07:18:10;;;;;;;;;;;;;;;16.39;100.00;99979.41;5075513;28;19974;-43
2022/09/21 07:20:36;;;;;;;;;;;;;;;16.40;100.00;99978.47;5075550;28;19974;-43
2022/09/21 07:23:08;;;;;;;;;;;;;;;16.64;100.00;99969.69;5075915;28;19916;-43
2022/09/21 07:25:33;;;;;;;;;;;;;;;16.81;100.00;99978.56;5073432;28;20018;-44
2022/09/21 07:27:59;;;;;;;;;;;;;;;16.86;100.00;99976.63;5073896;28;19920;-44
2022/09/21 07:30:26;;;;;;;;;;;;;;;17.06;100.00;99984.44;5075160;28;19999;-44
2022/09/21 07:32:51;;;;;;;;;;;;;;;17.26;100.00;99986.16;5074083;28;20445;-44
2022/09/21 07:35:16;;;;;;;;;;;;;;;17.39;100.00;99976.06;5073251;28;19924;-44
2022/09/21 07:37:41;;;;;;;;;;;;;;;17.63;100.00;99978.47;5071837;28;19973;-44
2022/09/21 07:40:07;;;;;;;;;;;;;;;17.62;100.00;99976.78;5075155;28;19915;-43
2022/09/21 07:42:32;;;;;;;;;;;;;;;17.06;100.00;99986.19;5075451;28;19969;-44
2022/09/21 07:44:57;;;;;;;;;;;;;;;17.77;100.00;99976.09;5072286;28;20545;-44
2022/09/21 07:47:24;;;;;;;;;;;;;;;17.72;100.00;99980.66;5075172;28;19916;-43
2022/09/21 07:49:49;;;;;;;;;;;;;;;17.46;100.00;99980.06;5073458;28;19923;-45
2022/09/21 07:52:15;;;;;;;;;;;;;;;17.86;100.00;99965.28;5056436;28;19949;-43
2022/09/21 07:54:40;;;;;;;;;;;;;;;17.51;100.00;99974.66;5075271;28;19923;-44
2022/09/21 07:59:59;;;;;;;;;;;;;;;18.58;100.00;99963.56;5002872;28;20004;-44
2022/09/21 08:02:25;;;;;;;;;;;;;;;18.50;100.00;99971.78;5073796;28;20091;-43
2022/09/21 08:04:50;;;;;;;;;;;;;;;18.11;100.00;99974.53;5071615;28;20734;-44
2022/09/21 08:07:15;;;;;;;;;;;;;;;18.53;100.00;99970.78;5073756;28;20476;-44
2022/09/21 08:09:41;;;;;;;;;;;;;;;19.11;100.00;99961.78;5073479;28;20448;-44
2022/09/21 08:12:07;;;;;;;;;;;;;;;18.66;100.00;99969.25;5073619;28;19924;-44
2022/09/21 08:14:33;;;;;;;;;;;;;;;17.24;100.00;99988.00;5074056;28;19951;-44
2022/09/21 08:16:58;;;;;;;;;;;;;;;16.30;100.00;99991.00;5072846;28;20019;-44
2022/09/21 08:19:25;;;;;;;;;;;;;;;17.77;100.00;99982.16;5074507;28;19967;-44
2022/09/21 08:21:50;;;;;;;;;;;;;;;18.18;100.00;99975.94;5074357;28;20027;-44
2022/09/21 08:24:16;;;;;;;;;;;;;;;17.63;100.00;99973.25;5074493;28;19924;-44
2022/09/21 08:26:41;;;;;;;;;;;;;;;18.00;100.00;99976.81;5051025;28;20398;-44
2022/09/21 08:29:07;;;;;;;;;;;;;;;18.71;100.00;99967.25;5074057;28;20461;-44
2022/09/21 08:31:32;;;;;;;;;;;;;;;19.77;100.00;99966.16;5073202;28;19919;-44
2022/09/21 08:33:59;;;;;;;;;;;;;;;20.45;100.00;99968.44;5067301;28;20283;-45
2022/09/21 08:36:25;;;;;;;;;;;;;;;20.17;100.00;99962.16;5065713;28;20044;-45
2022/09/21 08:38:50;;;;;;;;;;;;;;;19.77;100.00;99979.22;5064271;28;19920;-45
2022/09/21 08:41:24;;;;;;;;;;;;;;;19.43;100.00;99973.16;5069702;28;19972;-45
2022/09/21 08:43:51;;;;;;;;;;;;;;;19.42;100.00;99974.91;5070529;28;19924;-44
2022/09/21 08:46:21;;;;;;;;;;;;;;;20.22;100.00;99969.75;5051501;28;19946;-45
2022/09/21 08:48:53;;;;;;;;;;;;;;;21.06;100.00;99961.41;5048701;28;19920;-45
2022/09/21 08:51:22;;;;;;;;;;;;;;;20.87;100.00;99959.06;5071182;28;20366;-46
2022/09/21 08:53:47;;;;;;;;;;;;;;;20.61;100.00;99963.19;5055780;28;19950;-47
2022/09/21 08:56:13;;;;;;;;;;;;;;;21.25;100.00;99969.00;5054947;28;20423;-47
2022/09/21 08:58:42;;;;;;;;;;;;;;;22.05;100.00;99950.94;5071659;28;20300;-45
2022/09/21 09:01:16;;;;;;;;;;;;;;;22.22;97.64;99955.13;5071843;28;19920;-45
2022/09/21 09:03:41;;;;;;;;;;;;;;;21.49;100.00;99967.53;5072102;28;19920;-46
2022/09/21 09:06:19;;;;;;;;;;;;;;;21.52;99.23;99967.34;5071907;28;19935;-45
2022/09/21 09:08:54;;;;;;;;;;;;;;;21.90;98.20;99956.22;5072960;28;20027;-46
2022/09/21 09:11:32;;;;;;;;;;;;;;;21.58;100.00;99966.13;5054294;28;19916;-46
2022/09/21 09:14:27;;;;;;;;;;;;;;;19.59;100.00;99974.03;5053645;28;19928;-46
2022/09/21 09:17:05;;;;;;;;;;;;;;;21.52;99.32;99961.25;5000271;28;19952;-47
2022/09/21 09:19:43;;;;;;;;;;;;;;;22.43;96.43;99963.38;5054447;28;19920;-49
2022/09/21 09:22:09;;;;;;;;;;;;;;;21.45;95.66;99968.66;5073471;28;19954;-45
2022/09/21 09:24:42;;;;;;;;;;;;;;;19.61;98.35;99976.56;5073037;28;19920;-46
2022/09/21 09:27:43;;;;;;;;;;;;;;;20.66;100.00;99976.84;5070917;28;20275;-46
2022/09/21 09:30:17;;;;;;;;;;;;;;;21.81;93.17;99961.22;4989959;28;20261;-45
2022/09/21 09:32:56;;;;;;;;;;;;;;;21.45;93.34;99965.19;5056702;28;19924;-46
2022/09/21 09:35:25;;;;;;;;;;;;;;;19.96;93.84;99968.63;5053351;28;20171;-45
2022/09/21 09:37:50;;;;;;;;;;;;;;;22.00;93.15;99959.09;5071833;28;19942;-45
2022/09/21 09:40:16;;;;;;;;;;;;;;;21.75;89.82;99957.19;5073021;28;20941;-45
2022/09/21 09:43:02;;;;;;;;;;;;;;;22.47;90.69;99962.22;5073207;28;20322;-47
2022/09/21 09:45:33;;;;;;;;;;;;;;;22.70;86.30;99958.06;5052988;28;20420;-46
2022/09/21 09:48:13;;;;;;;;;;;;;;;22.02;85.38;99953.75;5053505;28;19939;-46
2022/09/21 09:50:39;;;;;;;;;;;;;;;21.58;89.79;99971.38;5072631;28;20404;-46
2022/09/21 09:53:04;;;;;;;;;;;;;;;21.60;86.57;99963.38;5071982;28;19923;-45
2022/09/21 09:55:38;;;;;;;;;;;;;;;21.26;90.06;99966.28;5072777;28;19913;-46
2022/09/21 09:58:04;;;;;;;;;;;;;;;20.55;92.11;99973.97;5054335;28;20011;-45
2022/09/21 10:00:29;;;;;;;;;;;;;;;21.67;90.69;99965.56;5069927;28;19920;-45
2022/09/21 10:02:55;;;;;;;;;;;;;;;21.72;89.29;99963.47;5071445;28;19965;-46
2022/09/21 10:05:40;;;;;;;;;;;;;;;22.53;89.49;99954.78;5054914;28;19943;-46
2022/09/21 10:08:07;;;;;;;;;;;;;;;23.23;86.79;99958.00;5070962;28;19932;-45
2022/09/21 10:10:32;;;;;;;;;;;;;;;22.46;88.64;99964.00;5052054;28;19924;-46
2022/09/21 10:13:11;;;;;;;;;;;;;;;23.54;85.13;99951.47;5069936;28;20080;-45
2022/09/21 10:15:43;;;;;;;;;;;;;;;21.83;84.44;99959.34;5052259;28;20335;-45
2022/09/21 10:18:15;;;;;;;;;;;;;;;23.32;81.54;99947.69;5073263;28;19928;-45
2022/09/21 10:20:48;;;;;;;;;;;;;;;22.92;83.59;99960.94;5055366;28;20833;-47
2022/09/21 10:23:13;;;;;;;;;;;;;;;23.70;75.09;99936.25;5050031;28;19967;-47
2022/09/21 10:25:38;;;;;;;;;;;;;;;23.75;77.83;99943.84;5054221;28;20034;-46
2022/09/21 10:28:04;;;;;;;;;;;;;;;23.30;79.75;99943.50;5053317;28;19920;-46
2022/09/21 10:30:30;;;;;;;;;;;;;;;24.49;77.31;99939.31;5069967;28;20069;-46
2022/09/21 10:32:56;;;;;;;;;;;;;;;21.77;82.92;99957.94;5071380;28;19920;-46
2022/09/21 10:35:21;;;;;;;;;;;;;;;21.65;85.75;99956.94;5073339;28;20032;-46
2022/09/21 10:37:53;;;;;;;;;;;;;;;21.82;86.21;99957.66;5071022;28;19924;-46
2022/09/21 10:40:18;;;;;;;;;;;;;;;21.23;88.02;99956.00;5071579;28;20817;-48
2022/09/21 10:42:43;;;;;;;;;;;;;;;21.76;82.51;99947.53;5072132;28;20015;-45
2022/09/21 10:45:16;;;;;;;;;;;;;;;22.76;81.57;99947.13;5051874;28;19920;-46
2022/09/21 10:47:43;;;;;;;;;;;;;;;23.39;81.76;99943.69;5072980;28;19919;-49
2022/09/21 10:50:24;;;;;;;;;;;;;;;24.88;80.69;99939.88;5072172;28;20023;-45
2022/09/21 10:52:49;;;;;;;;;;;;;;;24.86;78.20;99941.81;5071344;28;19920;-46
2022/09/21 10:55:18;;;;;;;;;;;;;;;24.24;75.30;99939.44;5070372;28;20466;-49
2022/09/21 10:57:43;;;;;;;;;;;;;;;25.35;76.21;99943.28;5055070;28;19916;-47
2022/09/21 11:00:24;;;;;;;;;;;;;;;23.31;73.95;99939.91;5069720;28;19920;-47
2022/09/21 11:02:49;;;;;;;;;;;;;;;23.45;75.78;99945.06;5072022;28;19920;-46
2022/09/21 11:05:22;;;;;;;;;;;;;;;25.04;76.01;99944.78;5072198;28;19919;-46
2022/09/21 11:07:52;;;;;;;;;;;;;;;23.17;81.05;99954.00;5073026;28;20868;-46
2022/09/21 11:10:32;;;;;;;;;;;;;;;23.68;74.90;99932.91;5071597;28;19985;-47
2022/09/21 11:13:07;;;;;;;;;;;;;;;23.97;75.49;99940.50;5053967;28;19956;-47
2022/09/21 11:15:32;;;;;;;;;;;;;;;24.32;68.33;99922.13;5071830;28;19920;-47
2022/09/21 11:18:00;;;;;;;;;;;;;;;22.76;69.21;99934.00;5072684;28;20361;-46
2022/09/21 11:20:42;;;;;;;;;;;;;;;22.42;73.05;99938.91;5070637;28;19925;-46
2022/09/21 11:23:16;;;;;;;;;;;;;;;23.56;71.24;99928.50;5056823;28;20437;-46
2022/09/21 11:25:43;;;;;;;;;;;;;;;22.23;72.41;99935.81;5074716;28;19920;-46
2022/09/21 11:28:14;;;;;;;;;;;;;;;22.04;76.48;99942.22;5058391;28;19916;-46
2022/09/21 11:31:12;;;;;;;;;;;;;;;23.61;79.07;99938.72;5074810;28;19927;-46
2022/09/21 11:33:48;;;;;;;;;;;;;;;25.67;72.01;99916.97;5019966;28;20084;-46
2022/09/21 11:36:23;;;;;;;;;;;;;;;26.08;73.95;99925.19;5057490;28;20010;-46
2022/09/21 11:38:48;;;;;;;;;;;;;;;23.92;74.27;99934.72;5074566;28;19919;-46
2022/09/21 11:41:23;;;;;;;;;;;;;;;25.34;76.67;99928.44;5075164;28;19976;-46
2022/09/21 11:43:58;;;;;;;;;;;;;;;24.87;73.38;99938.19;5056760;28;20546;-45
2022/09/21 11:46:32;;;;;;;;;;;;;;;23.57;71.17;99927.56;5056417;28;19946;-46
2022/09/21 11:49:00;;;;;;;;;;;;;;;23.23;79.16;99932.56;5074911;28;19920;-46
2022/09/21 11:51:38;;;;;;;;;;;;;;;23.76;74.42;99920.06;5073511;28;19920;-46
2022/09/21 11:54:14;;;;;;;;;;;;;;;23.89;79.36;99932.34;5073852;28;19920;-47
2022/09/21 11:56:42;;;;;;;;;;;;;;;24.13;82.52;99929.69;5056946;28;20452;-46
2022/09/21 11:59:25;;;;;;;;;;;;;;;24.39;73.50;99907.53;5075220;28;19920;-46
2022/09/21 12:01:59;;;;;;;;;;;;;;;23.22;78.47;99922.16;5073689;28;19920;-46
2022/09/21 12:04:41;;;;;;;;;;;;;;;23.88;78.03;99906.97;5074558;28;19920;-45
2022/09/21 12:07:16;;;;;;;;;;;;;;;24.08;82.78;99919.50;5053668;28;19921;-46
2022/09/21 12:10:10;;;;;;;;;;;;;;;24.13;75.20;99906.88;5056737;28;20043;-46
2022/09/21 12:12:43;;;;;;;;;;;;;;;23.19;74.92;99904.81;4984046;28;19921;-45
2022/09/21 12:15:11;;;;;;;;;;;;;;;23.17;82.88;99911.97;5073756;28;20334;-46
2022/09/21 12:17:42;;;;;;;;;;;;;;;23.43;76.43;99896.16;5056507;28;19954;-47
2022/09/21 12:20:26;;;;;;;;;;;;;;;23.89;78.94;99898.13;5074626;28;20348;-49
2022/09/21 12:22:54;;;;;;;;;;;;;;;24.77;77.37;99900.34;5075124;28;19958;-49
2022/09/21 12:25:25;;;;;;;;;;;;;;;25.03;76.83;99901.78;5038392;28;19999;-49
2022/09/21 12:28:09;;;;;;;;;;;;;;;24.66;77.18;99900.34;5056073;28;19920;-48
2022/09/21 12:30:35;;;;;;;;;;;;;;;24.03;74.24;99895.31;5074148;28;19923;-48
2022/09/21 12:33:19;;;;;;;;;;;;;;;24.95;71.40;99885.75;5054146;28;19924;-49
2022/09/21 12:36:08;;;;;;;;;;;;;;;24.06;76.89;99900.34;5073136;28;19916;-51
2022/09/21 12:38:35;;;;;;;;;;;;;;;24.28;77.04;99893.50;5062712;28;20257;-51
2022/09/21 12:41:20;;;;;;;;;;;;;;;24.67;70.77;99883.56;5054908;28;19962;-48
2022/09/21 12:44:08;;;;;;;;;;;;;;;24.28;69.19;99875.06;5073854;28;20452;-49
2022/09/21 12:46:39;;;;;;;;;;;;;;;25.40;69.04;99877.81;5061149;28;19920;-51
2022/09/21 12:49:10;;;;;;;;;;;;;;;23.74;66.12;99874.63;5055359;28;20846;-48
2022/09/21 12:51:37;;;;;;;;;;;;;;;24.89;74.91;99888.88;5056355;28;19922;-47